sensor_id;sensor_type;location;lat;lon;timestamp;P1;durP1;ratioP1;P2;durP2;ratioP2
36653;SDS011;22650;49.350;20.898;2022-11-21T00:01:55;114.78;;;41.45;;
36653;SDS011;22650;49.350;20.898;2022-11-21T00:04:29;117.45;;;42.42;;
36653;SDS011;22650;49.350;20.898;2022-11-21T00:07:03;117.90;;;46.55;;
36653;SDS011;22650;49.350;20.898;2022-11-21T00:09:36;99.32;;;38.75;;
36653;SDS011;22650;49.350;20.898;2022-11-21T00:12:10;123.47;;;45.35;;
36653;SDS011;22650;49.350;20.898;2022-11-21T00:14:43;115.38;;;40.88;;
36653;SDS011;22650;49.350;20.898;2022-11-21T00:17:17;96.30;;;36.83;;
36653;SDS011;22650;49.350;20.898;2022-11-21T00:19:51;101.00;;;37.17;;
36653;SDS011;22650;49.350;20.898;2022-11-21T00:22:24;142.98;;;49.45;;
36653;SDS011;22650;49.350;20.898;2022-11-21T00:24:58;127.57;;;46.05;;
36653;SDS011;22650;49.350;20.898;2022-11-21T00:27:31;111.90;;;42.50;;
36653;SDS011;22650;49.350;20.898;2022-11-21T00:30:06;116.32;;;43.95;;
36653;SDS011;22650;49.350;20.898;2022-11-21T00:32:42;125.75;;;46.38;;
36653;SDS011;22650;49.350;20.898;2022-11-21T00:35:15;117.70;;;44.60;;
36653;SDS011;22650;49.350;20.898;2022-11-21T00:37:49;113.43;;;39.75;;
36653;SDS011;22650;49.350;20.898;2022-11-21T00:40:22;113.10;;;41.00;;
36653;SDS011;22650;49.350;20.898;2022-11-21T00:42:56;101.30;;;38.15;;
36653;SDS011;22650;49.350;20.898;2022-11-21T00:45:29;93.40;;;35.00;;
36653;SDS011;22650;49.350;20.898;2022-11-21T00:48:04;102.57;;;38.78;;
36653;SDS011;22650;49.350;20.898;2022-11-21T00:50:38;88.28;;;32.58;;
36653;SDS011;22650;49.350;20.898;2022-11-21T00:53:11;92.90;;;33.75;;
36653;SDS011;22650;49.350;20.898;2022-11-21T00:55:45;68.40;;;28.13;;
36653;SDS011;22650;49.350;20.898;2022-11-21T00:58:18;89.47;;;30.45;;
36653;SDS011;22650;49.350;20.898;2022-11-21T01:00:52;98.93;;;35.05;;
36653;SDS011;22650;49.350;20.898;2022-11-21T01:03:34;83.65;;;31.42;;
36653;SDS011;22650;49.350;20.898;2022-11-21T01:06:10;79.97;;;30.05;;
36653;SDS011;22650;49.350;20.898;2022-11-21T01:08:44;69.80;;;26.88;;
36653;SDS011;22650;49.350;20.898;2022-11-21T01:11:18;64.30;;;26.08;;
36653;SDS011;22650;49.350;20.898;2022-11-21T01:13:52;81.50;;;29.38;;
36653;SDS011;22650;49.350;20.898;2022-11-21T01:16:26;60.47;;;26.30;;
36653;SDS011;22650;49.350;20.898;2022-11-21T01:19:02;64.65;;;25.48;;
36653;SDS011;22650;49.350;20.898;2022-11-21T01:21:35;62.83;;;21.38;;
36653;SDS011;22650;49.350;20.898;2022-11-21T01:24:09;59.03;;;22.65;;
36653;SDS011;22650;49.350;20.898;2022-11-21T01:26:43;66.38;;;23.58;;
36653;SDS011;22650;49.350;20.898;2022-11-21T01:29:16;55.13;;;19.73;;
36653;SDS011;22650;49.350;20.898;2022-11-21T01:31:49;54.75;;;20.60;;
36653;SDS011;22650;49.350;20.898;2022-11-21T01:34:24;66.47;;;24.13;;
36653;SDS011;22650;49.350;20.898;2022-11-21T01:36:58;55.97;;;20.70;;
36653;SDS011;22650;49.350;20.898;2022-11-21T01:39:31;54.22;;;20.13;;
36653;SDS011;22650;49.350;20.898;2022-11-21T01:42:05;51.75;;;18.90;;
36653;SDS011;22650;49.350;20.898;2022-11-21T01:44:45;60.80;;;21.10;;
36653;SDS011;22650;49.350;20.898;2022-11-21T01:49:55;68.90;;;25.20;;
36653;SDS011;22650;49.350;20.898;2022-11-21T01:52:29;57.80;;;23.23;;
36653;SDS011;22650;49.350;20.898;2022-11-21T01:55:06;72.97;;;24.83;;
36653;SDS011;22650;49.350;20.898;2022-11-21T01:57:43;64.55;;;24.42;;
36653;SDS011;22650;49.350;20.898;2022-11-21T02:00:21;60.20;;;24.08;;
36653;SDS011;22650;49.350;20.898;2022-11-21T02:03:00;70.90;;;26.83;;
36653;SDS011;22650;49.350;20.898;2022-11-21T02:05:39;64.13;;;24.00;;
36653;SDS011;22650;49.350;20.898;2022-11-21T02:08:14;61.53;;;21.75;;
36653;SDS011;22650;49.350;20.898;2022-11-21T02:10:54;64.50;;;24.73;;
36653;SDS011;22650;49.350;20.898;2022-11-21T02:13:34;63.03;;;25.42;;
36653;SDS011;22650;49.350;20.898;2022-11-21T02:16:08;62.05;;;22.95;;
36653;SDS011;22650;49.350;20.898;2022-11-21T02:18:41;58.13;;;22.45;;
36653;SDS011;22650;49.350;20.898;2022-11-21T02:21:18;50.65;;;18.95;;
36653;SDS011;22650;49.350;20.898;2022-11-21T02:23:59;51.53;;;21.13;;
36653;SDS011;22650;49.350;20.898;2022-11-21T02:26:38;51.50;;;19.40;;
36653;SDS011;22650;49.350;20.898;2022-11-21T02:29:12;47.97;;;19.13;;
36653;SDS011;22650;49.350;20.898;2022-11-21T02:31:46;54.92;;;19.83;;
36653;SDS011;22650;49.350;20.898;2022-11-21T02:34:19;44.17;;;18.65;;
36653;SDS011;22650;49.350;20.898;2022-11-21T02:36:52;49.15;;;19.33;;
36653;SDS011;22650;49.350;20.898;2022-11-21T02:39:26;49.38;;;19.30;;
36653;SDS011;22650;49.350;20.898;2022-11-21T02:42:06;58.90;;;20.38;;
36653;SDS011;22650;49.350;20.898;2022-11-21T02:44:48;57.40;;;19.90;;
36653;SDS011;22650;49.350;20.898;2022-11-21T02:47:27;60.88;;;20.95;;
36653;SDS011;22650;49.350;20.898;2022-11-21T02:50:05;53.17;;;20.05;;
36653;SDS011;22650;49.350;20.898;2022-11-21T02:52:43;56.95;;;19.77;;
36653;SDS011;22650;49.350;20.898;2022-11-21T02:55:16;62.83;;;21.77;;
36653;SDS011;22650;49.350;20.898;2022-11-21T02:57:52;59.53;;;20.88;;
36653;SDS011;22650;49.350;20.898;2022-11-21T03:00:32;44.78;;;17.33;;
36653;SDS011;22650;49.350;20.898;2022-11-21T03:03:07;44.00;;;18.15;;
36653;SDS011;22650;49.350;20.898;2022-11-21T03:05:40;44.05;;;18.33;;
36653;SDS011;22650;49.350;20.898;2022-11-21T03:08:14;48.55;;;19.33;;
36653;SDS011;22650;49.350;20.898;2022-11-21T03:10:47;59.13;;;22.58;;
36653;SDS011;22650;49.350;20.898;2022-11-21T03:13:22;47.00;;;19.40;;
36653;SDS011;22650;49.350;20.898;2022-11-21T03:15:55;44.13;;;16.52;;
36653;SDS011;22650;49.350;20.898;2022-11-21T03:18:30;45.28;;;16.30;;
36653;SDS011;22650;49.350;20.898;2022-11-21T03:21:04;51.88;;;17.08;;
36653;SDS011;22650;49.350;20.898;2022-11-21T03:23:37;40.72;;;17.02;;
36653;SDS011;22650;49.350;20.898;2022-11-21T03:26:10;43.30;;;17.05;;
36653;SDS011;22650;49.350;20.898;2022-11-21T03:28:45;45.55;;;17.75;;
36653;SDS011;22650;49.350;20.898;2022-11-21T03:31:19;50.53;;;19.83;;
36653;SDS011;22650;49.350;20.898;2022-11-21T03:33:52;62.10;;;21.05;;
36653;SDS011;22650;49.350;20.898;2022-11-21T03:36:25;57.17;;;18.13;;
36653;SDS011;22650;49.350;20.898;2022-11-21T03:38:58;52.15;;;19.27;;
36653;SDS011;22650;49.350;20.898;2022-11-21T03:41:32;45.38;;;18.65;;
36653;SDS011;22650;49.350;20.898;2022-11-21T03:44:07;49.20;;;17.95;;
36653;SDS011;22650;49.350;20.898;2022-11-21T03:46:43;44.92;;;16.75;;
36653;SDS011;22650;49.350;20.898;2022-11-21T03:49:17;40.60;;;15.88;;
36653;SDS011;22650;49.350;20.898;2022-11-21T03:51:50;40.13;;;16.73;;
36653;SDS011;22650;49.350;20.898;2022-11-21T03:54:24;37.72;;;17.00;;
36653;SDS011;22650;49.350;20.898;2022-11-21T03:56:58;45.97;;;17.15;;
36653;SDS011;22650;49.350;20.898;2022-11-21T03:59:33;51.30;;;18.10;;
36653;SDS011;22650;49.350;20.898;2022-11-21T04:02:06;51.28;;;20.08;;
36653;SDS011;22650;49.350;20.898;2022-11-21T04:04:39;57.53;;;20.92;;
36653;SDS011;22650;49.350;20.898;2022-11-21T04:07:13;58.13;;;22.23;;
36653;SDS011;22650;49.350;20.898;2022-11-21T04:09:47;54.70;;;19.90;;
36653;SDS011;22650;49.350;20.898;2022-11-21T04:12:20;51.25;;;21.17;;
36653;SDS011;22650;49.350;20.898;2022-11-21T04:14:55;73.43;;;22.60;;
36653;SDS011;22650;49.350;20.898;2022-11-21T04:17:28;58.05;;;20.85;;
36653;SDS011;22650;49.350;20.898;2022-11-21T04:20:02;61.47;;;20.83;;
36653;SDS011;22650;49.350;20.898;2022-11-21T04:22:36;58.80;;;21.40;;
36653;SDS011;22650;49.350;20.898;2022-11-21T04:25:09;65.38;;;21.23;;
36653;SDS011;22650;49.350;20.898;2022-11-21T04:27:44;45.67;;;19.13;;
36653;SDS011;22650;49.350;20.898;2022-11-21T04:30:19;44.65;;;18.73;;
36653;SDS011;22650;49.350;20.898;2022-11-21T04:32:52;52.00;;;20.55;;
36653;SDS011;22650;49.350;20.898;2022-11-21T04:35:26;42.03;;;18.15;;
36653;SDS011;22650;49.350;20.898;2022-11-21T04:38:00;48.13;;;17.88;;
36653;SDS011;22650;49.350;20.898;2022-11-21T04:40:33;41.35;;;17.83;;
36653;SDS011;22650;49.350;20.898;2022-11-21T04:43:07;49.25;;;19.35;;
36653;SDS011;22650;49.350;20.898;2022-11-21T04:45:42;48.85;;;18.63;;
36653;SDS011;22650;49.350;20.898;2022-11-21T04:48:16;48.72;;;18.38;;
36653;SDS011;22650;49.350;20.898;2022-11-21T04:50:49;52.53;;;18.13;;
36653;SDS011;22650;49.350;20.898;2022-11-21T04:53:23;51.88;;;16.52;;
36653;SDS011;22650;49.350;20.898;2022-11-21T04:55:56;46.10;;;17.05;;
36653;SDS011;22650;49.350;20.898;2022-11-21T04:58:30;44.35;;;17.60;;
36653;SDS011;22650;49.350;20.898;2022-11-21T05:01:06;46.88;;;16.40;;
36653;SDS011;22650;49.350;20.898;2022-11-21T05:03:40;41.95;;;15.38;;
36653;SDS011;22650;49.350;20.898;2022-11-21T05:06:13;47.10;;;15.38;;
36653;SDS011;22650;49.350;20.898;2022-11-21T05:08:47;45.92;;;17.20;;
36653;SDS011;22650;49.350;20.898;2022-11-21T05:11:24;45.78;;;18.52;;
36653;SDS011;22650;49.350;20.898;2022-11-21T05:14:29;46.72;;;19.23;;
36653;SDS011;22650;49.350;20.898;2022-11-21T05:17:04;36.38;;;13.95;;
36653;SDS011;22650;49.350;20.898;2022-11-21T05:19:38;42.83;;;15.18;;
36653;SDS011;22650;49.350;20.898;2022-11-21T05:22:11;44.85;;;15.45;;
36653;SDS011;22650;49.350;20.898;2022-11-21T05:24:44;43.22;;;16.35;;
36653;SDS011;22650;49.350;20.898;2022-11-21T05:27:18;42.65;;;14.68;;
36653;SDS011;22650;49.350;20.898;2022-11-21T05:29:51;39.05;;;13.48;;
36653;SDS011;22650;49.350;20.898;2022-11-21T05:32:27;43.13;;;14.13;;
36653;SDS011;22650;49.350;20.898;2022-11-21T05:35:00;31.00;;;13.13;;
36653;SDS011;22650;49.350;20.898;2022-11-21T05:37:34;37.80;;;13.93;;
36653;SDS011;22650;49.350;20.898;2022-11-21T05:40:07;39.63;;;14.88;;
36653;SDS011;22650;49.350;20.898;2022-11-21T05:42:41;33.40;;;13.65;;
36653;SDS011;22650;49.350;20.898;2022-11-21T05:45:32;46.80;;;18.05;;
36653;SDS011;22650;49.350;20.898;2022-11-21T05:48:07;40.30;;;15.63;;
36653;SDS011;22650;49.350;20.898;2022-11-21T05:50:41;43.58;;;16.30;;
36653;SDS011;22650;49.350;20.898;2022-11-21T05:53:14;46.95;;;16.95;;
36653;SDS011;22650;49.350;20.898;2022-11-21T05:55:48;45.72;;;16.42;;
36653;SDS011;22650;49.350;20.898;2022-11-21T05:58:21;51.13;;;18.77;;
36653;SDS011;22650;49.350;20.898;2022-11-21T06:00:54;38.05;;;16.23;;
36653;SDS011;22650;49.350;20.898;2022-11-21T06:03:33;40.60;;;15.85;;
36653;SDS011;22650;49.350;20.898;2022-11-21T06:06:07;41.35;;;16.02;;
36653;SDS011;22650;49.350;20.898;2022-11-21T06:08:42;42.10;;;15.77;;
36653;SDS011;22650;49.350;20.898;2022-11-21T06:11:16;39.97;;;14.48;;
36653;SDS011;22650;49.350;20.898;2022-11-21T06:13:50;44.00;;;17.38;;
36653;SDS011;22650;49.350;20.898;2022-11-21T06:16:24;40.42;;;14.75;;
36653;SDS011;22650;49.350;20.898;2022-11-21T06:18:58;33.28;;;13.00;;
36653;SDS011;22650;49.350;20.898;2022-11-21T06:21:32;41.17;;;15.48;;
36653;SDS011;22650;49.350;20.898;2022-11-21T06:24:07;42.67;;;15.43;;
36653;SDS011;22650;49.350;20.898;2022-11-21T06:26:42;35.88;;;14.55;;
36653;SDS011;22650;49.350;20.898;2022-11-21T06:29:15;37.63;;;14.05;;
36653;SDS011;22650;49.350;20.898;2022-11-21T06:31:52;36.35;;;14.70;;
36653;SDS011;22650;49.350;20.898;2022-11-21T06:34:27;40.47;;;16.33;;
36653;SDS011;22650;49.350;20.898;2022-11-21T06:37:01;37.67;;;13.82;;
36653;SDS011;22650;49.350;20.898;2022-11-21T06:39:34;39.38;;;17.08;;
36653;SDS011;22650;49.350;20.898;2022-11-21T06:42:08;42.33;;;16.70;;
36653;SDS011;22650;49.350;20.898;2022-11-21T06:44:41;48.63;;;19.70;;
36653;SDS011;22650;49.350;20.898;2022-11-21T06:47:14;42.08;;;15.23;;
36653;SDS011;22650;49.350;20.898;2022-11-21T06:49:49;36.42;;;13.15;;
36653;SDS011;22650;49.350;20.898;2022-11-21T06:52:22;35.25;;;13.90;;
36653;SDS011;22650;49.350;20.898;2022-11-21T06:54:55;35.80;;;18.58;;
36653;SDS011;22650;49.350;20.898;2022-11-21T06:57:29;39.55;;;16.55;;
36653;SDS011;22650;49.350;20.898;2022-11-21T07:00:03;34.22;;;14.25;;
36653;SDS011;22650;49.350;20.898;2022-11-21T07:02:37;41.55;;;15.13;;
36653;SDS011;22650;49.350;20.898;2022-11-21T07:05:12;49.00;;;17.00;;
36653;SDS011;22650;49.350;20.898;2022-11-21T07:07:45;47.97;;;17.73;;
36653;SDS011;22650;49.350;20.898;2022-11-21T07:10:19;41.50;;;16.33;;
36653;SDS011;22650;49.350;20.898;2022-11-21T07:12:55;41.28;;;17.30;;
36653;SDS011;22650;49.350;20.898;2022-11-21T07:15:46;38.47;;;14.82;;
36653;SDS011;22650;49.350;20.898;2022-11-21T07:18:21;47.28;;;17.52;;
36653;SDS011;22650;49.350;20.898;2022-11-21T07:20:57;51.70;;;15.93;;
36653;SDS011;22650;49.350;20.898;2022-11-21T07:23:32;46.03;;;16.92;;
36653;SDS011;22650;49.350;20.898;2022-11-21T07:26:06;46.95;;;17.38;;
36653;SDS011;22650;49.350;20.898;2022-11-21T07:28:41;46.45;;;16.40;;
36653;SDS011;22650;49.350;20.898;2022-11-21T07:31:15;65.05;;;26.30;;
36653;SDS011;22650;49.350;20.898;2022-11-21T07:33:48;40.88;;;15.82;;
36653;SDS011;22650;49.350;20.898;2022-11-21T07:36:23;43.03;;;16.98;;
36653;SDS011;22650;49.350;20.898;2022-11-21T07:38:56;42.58;;;15.95;;
36653;SDS011;22650;49.350;20.898;2022-11-21T07:41:29;22.95;;;11.20;;
36653;SDS011;22650;49.350;20.898;2022-11-21T07:44:03;36.03;;;13.27;;
36653;SDS011;22650;49.350;20.898;2022-11-21T07:46:36;33.50;;;13.38;;
36653;SDS011;22650;49.350;20.898;2022-11-21T07:49:09;36.53;;;12.07;;
36653;SDS011;22650;49.350;20.898;2022-11-21T07:51:44;28.45;;;13.18;;
36653;SDS011;22650;49.350;20.898;2022-11-21T07:54:18;31.27;;;11.63;;
36653;SDS011;22650;49.350;20.898;2022-11-21T07:56:51;27.60;;;13.40;;
36653;SDS011;22650;49.350;20.898;2022-11-21T07:59:24;31.73;;;12.80;;
36653;SDS011;22650;49.350;20.898;2022-11-21T08:01:58;26.40;;;11.35;;
36653;SDS011;22650;49.350;20.898;2022-11-21T08:04:31;32.95;;;13.23;;
36653;SDS011;22650;49.350;20.898;2022-11-21T08:07:07;28.00;;;12.30;;
36653;SDS011;22650;49.350;20.898;2022-11-21T08:09:42;34.50;;;13.85;;
36653;SDS011;22650;49.350;20.898;2022-11-21T08:12:15;28.35;;;10.77;;
36653;SDS011;22650;49.350;20.898;2022-11-21T08:14:49;21.58;;;10.25;;
36653;SDS011;22650;49.350;20.898;2022-11-21T08:17:24;27.85;;;10.75;;
36653;SDS011;22650;49.350;20.898;2022-11-21T08:19:57;36.40;;;11.38;;
36653;SDS011;22650;49.350;20.898;2022-11-21T08:22:32;29.02;;;11.57;;
36653;SDS011;22650;49.350;20.898;2022-11-21T08:25:10;33.60;;;11.88;;
36653;SDS011;22650;49.350;20.898;2022-11-21T08:27:43;42.67;;;14.60;;
36653;SDS011;22650;49.350;20.898;2022-11-21T08:30:17;37.92;;;16.33;;
36653;SDS011;22650;49.350;20.898;2022-11-21T08:32:50;35.13;;;15.07;;
36653;SDS011;22650;49.350;20.898;2022-11-21T08:35:23;26.08;;;11.95;;
36653;SDS011;22650;49.350;20.898;2022-11-21T08:37:58;29.00;;;12.10;;
36653;SDS011;22650;49.350;20.898;2022-11-21T08:40:33;35.92;;;13.00;;
36653;SDS011;22650;49.350;20.898;2022-11-21T08:43:07;82.60;;;23.90;;
36653;SDS011;22650;49.350;20.898;2022-11-21T08:45:41;33.25;;;12.93;;
36653;SDS011;22650;49.350;20.898;2022-11-21T08:48:14;38.17;;;14.93;;
36653;SDS011;22650;49.350;20.898;2022-11-21T08:50:47;61.08;;;18.48;;
36653;SDS011;22650;49.350;20.898;2022-11-21T08:53:22;37.15;;;13.60;;
36653;SDS011;22650;49.350;20.898;2022-11-21T08:55:55;40.13;;;15.77;;
36653;SDS011;22650;49.350;20.898;2022-11-21T08:58:34;28.40;;;12.40;;
36653;SDS011;22650;49.350;20.898;2022-11-21T09:01:08;27.85;;;11.20;;
36653;SDS011;22650;49.350;20.898;2022-11-21T09:03:41;35.72;;;14.07;;
36653;SDS011;22650;49.350;20.898;2022-11-21T09:06:15;26.75;;;10.48;;
36653;SDS011;22650;49.350;20.898;2022-11-21T09:08:49;41.00;;;12.88;;
36653;SDS011;22650;49.350;20.898;2022-11-21T09:11:23;26.98;;;11.98;;
36653;SDS011;22650;49.350;20.898;2022-11-21T09:13:57;34.30;;;13.90;;
36653;SDS011;22650;49.350;20.898;2022-11-21T09:16:48;37.88;;;15.02;;
36653;SDS011;22650;49.350;20.898;2022-11-21T09:19:39;30.92;;;13.13;;
36653;SDS011;22650;49.350;20.898;2022-11-21T09:22:12;27.30;;;12.10;;
36653;SDS011;22650;49.350;20.898;2022-11-21T09:24:47;29.33;;;11.85;;
36653;SDS011;22650;49.350;20.898;2022-11-21T09:27:20;27.67;;;11.80;;
36653;SDS011;22650;49.350;20.898;2022-11-21T09:29:53;29.50;;;11.55;;
36653;SDS011;22650;49.350;20.898;2022-11-21T09:32:27;28.85;;;12.60;;
36653;SDS011;22650;49.350;20.898;2022-11-21T09:35:00;31.13;;;13.25;;
36653;SDS011;22650;49.350;20.898;2022-11-21T09:37:35;27.90;;;12.70;;
36653;SDS011;22650;49.350;20.898;2022-11-21T09:40:11;29.35;;;13.55;;
36653;SDS011;22650;49.350;20.898;2022-11-21T09:42:51;28.73;;;13.23;;
36653;SDS011;22650;49.350;20.898;2022-11-21T09:45:39;32.42;;;13.02;;
36653;SDS011;22650;49.350;20.898;2022-11-21T09:48:19;26.27;;;12.60;;
36653;SDS011;22650;49.350;20.898;2022-11-21T09:50:58;35.72;;;13.25;;
36653;SDS011;22650;49.350;20.898;2022-11-21T09:53:35;28.85;;;13.15;;
36653;SDS011;22650;49.350;20.898;2022-11-21T09:56:12;39.15;;;15.40;;
36653;SDS011;22650;49.350;20.898;2022-11-21T09:58:54;34.50;;;13.05;;
36653;SDS011;22650;49.350;20.898;2022-11-21T10:01:37;36.65;;;13.25;;
36653;SDS011;22650;49.350;20.898;2022-11-21T10:04:10;38.90;;;13.45;;
36653;SDS011;22650;49.350;20.898;2022-11-21T10:06:45;29.70;;;13.32;;
36653;SDS011;22650;49.350;20.898;2022-11-21T10:09:33;35.33;;;13.40;;
36653;SDS011;22650;49.350;20.898;2022-11-21T10:12:23;33.33;;;12.90;;
36653;SDS011;22650;49.350;20.898;2022-11-21T10:15:25;29.05;;;11.80;;
36653;SDS011;22650;49.350;20.898;2022-11-21T10:18:07;29.95;;;11.13;;
36653;SDS011;22650;49.350;20.898;2022-11-21T10:20:58;29.35;;;12.90;;
36653;SDS011;22650;49.350;20.898;2022-11-21T10:23:43;25.63;;;10.73;;
36653;SDS011;22650;49.350;20.898;2022-11-21T10:26:40;27.60;;;10.88;;
36653;SDS011;22650;49.350;20.898;2022-11-21T10:29:22;25.30;;;10.53;;
36653;SDS011;22650;49.350;20.898;2022-11-21T10:32:00;30.02;;;11.93;;
36653;SDS011;22650;49.350;20.898;2022-11-21T10:34:39;26.75;;;10.55;;
36653;SDS011;22650;49.350;20.898;2022-11-21T10:37:14;24.83;;;11.18;;
36653;SDS011;22650;49.350;20.898;2022-11-21T10:39:51;27.27;;;12.40;;
36653;SDS011;22650;49.350;20.898;2022-11-21T10:42:28;24.08;;;11.52;;
36653;SDS011;22650;49.350;20.898;2022-11-21T10:45:07;23.90;;;9.93;;
36653;SDS011;22650;49.350;20.898;2022-11-21T10:47:50;24.73;;;9.30;;
36653;SDS011;22650;49.350;20.898;2022-11-21T10:50:28;30.38;;;11.65;;
36653;SDS011;22650;49.350;20.898;2022-11-21T10:53:14;23.48;;;11.23;;
36653;SDS011;22650;49.350;20.898;2022-11-21T10:56:07;24.83;;;10.18;;
36653;SDS011;22650;49.350;20.898;2022-11-21T10:58:44;23.50;;;10.63;;
36653;SDS011;22650;49.350;20.898;2022-11-21T11:01:21;23.10;;;10.13;;
36653;SDS011;22650;49.350;20.898;2022-11-21T11:04:06;22.35;;;11.30;;
36653;SDS011;22650;49.350;20.898;2022-11-21T11:07:17;25.98;;;11.55;;
36653;SDS011;22650;49.350;20.898;2022-11-21T11:10:04;17.92;;;9.25;;
36653;SDS011;22650;49.350;20.898;2022-11-21T11:12:46;24.65;;;10.40;;
36653;SDS011;22650;49.350;20.898;2022-11-21T11:16:00;18.60;;;7.88;;
36653;SDS011;22650;49.350;20.898;2022-11-21T11:18:37;24.13;;;10.38;;
36653;SDS011;22650;49.350;20.898;2022-11-21T11:21:15;23.83;;;9.43;;
36653;SDS011;22650;49.350;20.898;2022-11-21T11:23:50;27.95;;;11.27;;
36653;SDS011;22650;49.350;20.898;2022-11-21T11:26:25;20.48;;;10.80;;
36653;SDS011;22650;49.350;20.898;2022-11-21T11:29:07;19.05;;;8.18;;
36653;SDS011;22650;49.350;20.898;2022-11-21T11:31:48;22.67;;;10.80;;
36653;SDS011;22650;49.350;20.898;2022-11-21T11:34:27;22.10;;;9.82;;
36653;SDS011;22650;49.350;20.898;2022-11-21T11:37:11;21.45;;;9.10;;
36653;SDS011;22650;49.350;20.898;2022-11-21T11:39:48;21.30;;;9.18;;
36653;SDS011;22650;49.350;20.898;2022-11-21T11:45:50;23.15;;;10.10;;
36653;SDS011;22650;49.350;20.898;2022-11-21T11:49:00;20.17;;;9.20;;
36653;SDS011;22650;49.350;20.898;2022-11-21T11:51:55;19.77;;;10.18;;
36653;SDS011;22650;49.350;20.898;2022-11-21T11:54:33;19.85;;;7.82;;
36653;SDS011;22650;49.350;20.898;2022-11-21T11:57:12;19.05;;;9.25;;
36653;SDS011;22650;49.350;20.898;2022-11-21T11:59:47;18.08;;;8.35;;
36653;SDS011;22650;49.350;20.898;2022-11-21T12:02:24;20.17;;;8.18;;
36653;SDS011;22650;49.350;20.898;2022-11-21T12:05:02;15.32;;;7.07;;
36653;SDS011;22650;49.350;20.898;2022-11-21T12:07:43;17.45;;;8.52;;
36653;SDS011;22650;49.350;20.898;2022-11-21T12:10:42;13.73;;;7.18;;
36653;SDS011;22650;49.350;20.898;2022-11-21T12:13:51;20.58;;;7.82;;
36653;SDS011;22650;49.350;20.898;2022-11-21T12:16:27;17.13;;;8.57;;
36653;SDS011;22650;49.350;20.898;2022-11-21T12:19:01;18.73;;;8.23;;
36653;SDS011;22650;49.350;20.898;2022-11-21T12:21:39;20.58;;;9.35;;
36653;SDS011;22650;49.350;20.898;2022-11-21T12:24:14;19.05;;;9.25;;
36653;SDS011;22650;49.350;20.898;2022-11-21T12:26:52;16.98;;;8.10;;
36653;SDS011;22650;49.350;20.898;2022-11-21T12:29:36;17.23;;;9.43;;
36653;SDS011;22650;49.350;20.898;2022-11-21T12:32:21;19.25;;;8.57;;
36653;SDS011;22650;49.350;20.898;2022-11-21T12:35:15;17.20;;;8.55;;
36653;SDS011;22650;49.350;20.898;2022-11-21T12:37:58;19.08;;;9.60;;
36653;SDS011;22650;49.350;20.898;2022-11-21T12:40:45;17.25;;;9.00;;
36653;SDS011;22650;49.350;20.898;2022-11-21T12:43:31;20.67;;;8.35;;
36653;SDS011;22650;49.350;20.898;2022-11-21T12:46:09;21.90;;;10.25;;
36653;SDS011;22650;49.350;20.898;2022-11-21T12:48:51;25.05;;;9.82;;
36653;SDS011;22650;49.350;20.898;2022-11-21T12:51:57;14.38;;;7.57;;
36653;SDS011;22650;49.350;20.898;2022-11-21T12:55:05;29.92;;;9.80;;
36653;SDS011;22650;49.350;20.898;2022-11-21T12:57:54;22.63;;;11.15;;
36653;SDS011;22650;49.350;20.898;2022-11-21T13:00:41;23.77;;;10.95;;
36653;SDS011;22650;49.350;20.898;2022-11-21T13:03:27;19.80;;;9.95;;
36653;SDS011;22650;49.350;20.898;2022-11-21T13:06:11;19.40;;;9.68;;
36653;SDS011;22650;49.350;20.898;2022-11-21T13:08:48;21.15;;;10.10;;
36653;SDS011;22650;49.350;20.898;2022-11-21T13:11:26;26.85;;;11.98;;
36653;SDS011;22650;49.350;20.898;2022-11-21T13:14:29;25.48;;;9.70;;
36653;SDS011;22650;49.350;20.898;2022-11-21T13:17:14;25.90;;;11.27;;
36653;SDS011;22650;49.350;20.898;2022-11-21T13:19:56;20.25;;;10.60;;
36653;SDS011;22650;49.350;20.898;2022-11-21T13:22:48;20.80;;;10.63;;
36653;SDS011;22650;49.350;20.898;2022-11-21T13:28:35;24.35;;;10.63;;
36653;SDS011;22650;49.350;20.898;2022-11-21T13:31:29;24.65;;;10.13;;
36653;SDS011;22650;49.350;20.898;2022-11-21T13:34:03;20.33;;;9.45;;
36653;SDS011;22650;49.350;20.898;2022-11-21T13:36:37;22.35;;;8.93;;
36653;SDS011;22650;49.350;20.898;2022-11-21T13:42:08;26.25;;;10.52;;
36653;SDS011;22650;49.350;20.898;2022-11-21T13:54:18;26.00;;;11.55;;
36653;SDS011;22650;49.350;20.898;2022-11-21T13:57:17;29.25;;;12.77;;
36653;SDS011;22650;49.350;20.898;2022-11-21T14:00:02;23.00;;;10.80;;
36653;SDS011;22650;49.350;20.898;2022-11-21T14:03:04;31.67;;;11.95;;
36653;SDS011;22650;49.350;20.898;2022-11-21T14:06:15;113.30;;;49.53;;
36653;SDS011;22650;49.350;20.898;2022-11-21T14:09:13;113.43;;;48.13;;
36653;SDS011;22650;49.350;20.898;2022-11-21T14:11:52;93.57;;;37.28;;
36653;SDS011;22650;49.350;20.898;2022-11-21T14:14:29;102.95;;;42.30;;
36653;SDS011;22650;49.350;20.898;2022-11-21T14:17:13;80.70;;;35.72;;
36653;SDS011;22650;49.350;20.898;2022-11-21T14:19:55;30.25;;;13.20;;
36653;SDS011;22650;49.350;20.898;2022-11-21T14:22:34;25.25;;;11.23;;
36653;SDS011;22650;49.350;20.898;2022-11-21T14:25:16;31.23;;;13.23;;
36653;SDS011;22650;49.350;20.898;2022-11-21T14:27:52;23.70;;;11.38;;
36653;SDS011;22650;49.350;20.898;2022-11-21T14:30:27;28.08;;;11.88;;
36653;SDS011;22650;49.350;20.898;2022-11-21T14:33:21;50.50;;;21.92;;
36653;SDS011;22650;49.350;20.898;2022-11-21T14:36:01;59.13;;;26.33;;
36653;SDS011;22650;49.350;20.898;2022-11-21T14:38:41;29.98;;;14.63;;
36653;SDS011;22650;49.350;20.898;2022-11-21T14:41:25;27.02;;;12.13;;
36653;SDS011;22650;49.350;20.898;2022-11-21T14:44:01;38.03;;;15.30;;
36653;SDS011;22650;49.350;20.898;2022-11-21T14:46:45;32.15;;;14.88;;
36653;SDS011;22650;49.350;20.898;2022-11-21T14:49:23;32.47;;;14.32;;
36653;SDS011;22650;49.350;20.898;2022-11-21T14:52:00;35.72;;;14.48;;
36653;SDS011;22650;49.350;20.898;2022-11-21T14:54:50;34.75;;;14.98;;
36653;SDS011;22650;49.350;20.898;2022-11-21T14:57:46;33.22;;;14.48;;
36653;SDS011;22650;49.350;20.898;2022-11-21T15:00:21;38.88;;;17.15;;
36653;SDS011;22650;49.350;20.898;2022-11-21T15:03:17;123.18;;;47.83;;
36653;SDS011;22650;49.350;20.898;2022-11-21T15:05:57;71.55;;;29.92;;
36653;SDS011;22650;49.350;20.898;2022-11-21T15:08:36;61.22;;;24.30;;
36653;SDS011;22650;49.350;20.898;2022-11-21T15:11:33;63.65;;;25.65;;
36653;SDS011;22650;49.350;20.898;2022-11-21T15:14:10;107.47;;;40.22;;
36653;SDS011;22650;49.350;20.898;2022-11-21T15:16:53;121.57;;;45.85;;
36653;SDS011;22650;49.350;20.898;2022-11-21T15:19:28;110.63;;;42.25;;
36653;SDS011;22650;49.350;20.898;2022-11-21T15:22:04;65.60;;;28.83;;
36653;SDS011;22650;49.350;20.898;2022-11-21T15:24:38;90.38;;;35.78;;
36653;SDS011;22650;49.350;20.898;2022-11-21T15:30:19;95.63;;;41.15;;
36653;SDS011;22650;49.350;20.898;2022-11-21T15:33:07;81.65;;;32.13;;
36653;SDS011;22650;49.350;20.898;2022-11-21T15:35:46;70.70;;;30.92;;